createdAt,value
2019-02-21T00:02:21.492Z,102494.09
2019-02-21T00:04:50.908Z,102494.88
2019-02-21T00:07:20.301Z,102493.75
2019-02-21T00:09:49.736Z,102497.31
2019-02-21T00:12:19.431Z,102495.31
2019-02-21T00:14:49.134Z,102501.50
2019-02-21T00:17:18.819Z,102501.09
2019-02-21T00:19:48.465Z,102505.19
2019-02-21T00:22:17.870Z,102516.09
2019-02-21T00:24:47.258Z,102507.56
2019-02-21T00:27:16.674Z,102510.38
2019-02-21T00:29:46.132Z,102514.65
2019-02-21T00:32:15.566Z,102516.20
2019-02-21T00:34:45.245Z,102511.66
2019-02-21T00:37:14.929Z,102510.81
2019-02-21T00:39:44.632Z,102514.46
2019-02-21T00:42:14.047Z,102525.55
2019-02-21T00:44:43.481Z,102533.88
2019-02-21T00:47:12.873Z,102528.55
2019-02-21T00:49:42.286Z,102531.78
2019-02-21T00:52:11.704Z,102538.97
2019-02-21T00:54:41.106Z,102536.95
2019-02-21T00:57:10.792Z,102539.63
2019-02-21T00:59:40.501Z,102544.30
2019-02-21T01:02:10.246Z,102542.70
2019-02-21T01:04:39.931Z,102550.72
2019-02-21T01:07:09.346Z,102549.77
2019-02-21T01:09:38.762Z,102556.80
2019-02-21T01:12:08.225Z,102561.44
2019-02-21T01:14:37.674Z,102562.72
2019-02-21T01:17:07.218Z,102563.58
2019-02-21T01:19:36.622Z,102563.88
2019-02-21T01:22:06.106Z,102563.33
2019-02-21T01:24:35.528Z,102567.66
2019-02-21T01:27:05.244Z,102571.98
2019-02-21T01:29:34.654Z,102578.19
2019-02-21T01:32:04.386Z,102576.64
2019-02-21T01:34:33.807Z,102587.58
2019-02-21T01:37:03.207Z,102582.59
2019-02-21T01:39:32.629Z,102580.44
2019-02-21T01:42:02.040Z,102572.78
2019-02-21T01:44:31.517Z,102578.41
2019-02-21T01:47:00.942Z,102579.37
2019-02-21T01:49:30.354Z,102566.39
2019-02-21T01:51:59.762Z,102569.92
2019-02-21T01:54:29.156Z,102570.13
2019-02-21T01:56:58.590Z,102571.78
2019-02-21T01:59:28.022Z,102569.68
2019-02-21T02:01:57.411Z,102578.73
2019-02-21T02:04:27.093Z,102570.42
2019-02-21T02:06:56.685Z,102565.52
2019-02-21T02:09:26.110Z,102565.91
2019-02-21T02:11:55.773Z,102565.34
2019-02-21T02:14:25.203Z,102565.39
2019-02-21T02:16:54.628Z,102566.66
2019-02-21T02:19:24.318Z,102564.52
2019-02-21T02:21:53.774Z,102561.19
2019-02-21T02:24:23.165Z,102562.97
2019-02-21T02:26:52.566Z,102563.94
2019-02-21T02:29:22.298Z,102558.42
2019-02-21T02:31:51.680Z,102553.77
2019-02-21T02:34:21.456Z,102549.53
2019-02-21T02:36:50.853Z,102552.44
2019-02-21T02:39:20.345Z,102548.44
2019-02-21T02:41:50.044Z,102554.09
2019-02-21T02:44:19.456Z,102551.27
2019-02-21T02:46:48.972Z,102555.81
2019-02-21T02:49:18.354Z,102550.17
2019-02-21T02:51:47.786Z,102558.46
2019-02-21T02:54:17.168Z,102566.01
2019-02-21T02:56:46.571Z,102564.13
2019-02-21T02:59:15.987Z,102569.63
2019-02-21T03:01:45.669Z,102571.58
2019-02-21T03:04:15.123Z,102574.42
2019-02-21T03:06:44.637Z,102571.29
2019-02-21T03:09:14.189Z,102560.94
2019-02-21T03:11:43.586Z,102566.58
2019-02-21T03:14:12.995Z,102564.94
2019-02-21T03:16:42.423Z,102570.06
2019-02-21T03:19:11.815Z,102567.31
2019-02-21T03:21:41.218Z,102568.49
2019-02-21T03:24:10.644Z,102560.17
2019-02-21T03:26:40.034Z,102552.63
2019-02-21T03:29:09.477Z,102548.67
2019-02-21T03:31:53.460Z,102552.02
2019-02-21T03:34:10.119Z,102556.43
2019-02-21T03:36:39.505Z,102553.22
2019-02-21T03:39:09.674Z,102552.70
2019-02-21T03:41:39.089Z,102555.81
2019-02-21T03:44:08.496Z,102554.97
2019-02-21T03:46:37.942Z,102548.89
2019-02-21T03:49:07.622Z,102539.94
2019-02-21T03:51:37.070Z,102532.91
2019-02-21T03:54:06.489Z,102531.02
2019-02-21T03:56:35.890Z,102530.45
2019-02-21T03:59:05.562Z,102535.73
2019-02-21T04:01:34.961Z,102537.12
2019-02-21T04:04:04.501Z,102531.77
2019-02-21T04:06:33.969Z,102533.34
2019-02-21T04:09:03.649Z,102534.88
2019-02-21T04:11:33.057Z,102531.39
2019-02-21T04:14:02.763Z,102538.20
2019-02-21T04:16:32.202Z,102537.41
2019-02-21T04:19:01.674Z,102532.47
2019-02-21T04:21:31.077Z,102540.01
2019-02-21T04:24:00.514Z,102550.02
2019-02-21T04:26:29.918Z,102539.90
2019-02-21T04:28:59.352Z,102535.67
2019-02-21T04:31:28.749Z,102540.77
2019-02-21T04:33:58.192Z,102536.95
2019-02-21T04:36:27.593Z,102537.27
2019-02-21T04:38:57.003Z,102538.58
2019-02-21T04:41:26.438Z,102547.00
2019-02-21T04:43:55.852Z,102541.95
2019-02-21T04:46:25.340Z,102546.66
2019-02-21T04:48:54.778Z,102552.23
2019-02-21T04:51:24.546Z,102552.81
2019-02-21T04:53:53.960Z,102549.16
2019-02-21T04:56:23.380Z,102545.20
2019-02-21T04:58:52.815Z,102547.73
2019-02-21T05:01:22.219Z,102548.42
2019-02-21T05:03:51.616Z,102551.28
2019-02-21T05:06:21.180Z,102558.34
2019-02-21T05:08:50.591Z,102557.06
2019-02-21T05:11:20.062Z,102558.91
2019-02-21T05:13:49.460Z,102548.97
2019-02-21T05:16:18.868Z,102559.34
2019-02-21T05:18:48.314Z,102566.20
2019-02-21T05:21:17.718Z,102567.55
2019-02-21T05:23:47.208Z,102574.48
2019-02-21T05:26:18.523Z,102567.95
2019-02-21T05:28:47.966Z,102568.27
2019-02-21T05:31:19.016Z,102570.16
2019-02-21T05:33:50.322Z,102563.45
2019-02-21T05:36:27.166Z,102565.14
2019-02-21T05:39:00.932Z,102571.30
2019-02-21T05:41:43.831Z,102569.43
2019-02-21T05:44:17.647Z,102572.13
2019-02-21T05:46:48.688Z,102573.02
2019-02-21T05:49:19.749Z,102569.16
2019-02-21T05:51:53.230Z,102574.52
2019-02-21T05:54:27.250Z,102577.98
2019-02-21T05:56:58.305Z,102584.91
2019-02-21T05:59:47.486Z,102587.05
2019-02-21T06:02:24.427Z,102576.86
2019-02-21T06:04:55.516Z,102580.16
2019-02-21T06:07:29.232Z,102588.12
2019-02-21T06:10:03.389Z,102584.03
2019-02-21T06:12:45.991Z,102583.83
2019-02-21T06:15:18.280Z,102574.95
2019-02-21T06:17:55.077Z,102572.01
2019-02-21T06:20:26.146Z,102568.33
2019-02-21T06:23:02.610Z,102590.33
2019-02-21T06:25:33.705Z,102587.72
2019-02-21T06:28:05.038Z,102573.80
2019-02-21T06:30:38.794Z,102578.09
2019-02-21T06:33:08.192Z,102587.09
2019-02-21T06:35:37.596Z,102588.59
2019-02-21T06:38:07.058Z,102576.88
2019-02-21T06:40:36.691Z,102579.06
2019-02-21T06:43:06.155Z,102590.25
2019-02-21T06:45:35.629Z,102593.91
2019-02-21T06:48:05.027Z,102590.48
2019-02-21T06:50:34.416Z,102596.08
2019-02-21T06:53:03.833Z,102612.87
2019-02-21T06:55:33.235Z,102621.32
2019-02-21T06:58:02.668Z,102614.59
2019-02-21T07:00:32.080Z,102624.02
2019-02-21T07:03:01.477Z,102619.05
2019-02-21T07:05:30.913Z,102623.63
2019-02-21T07:08:00.579Z,102627.36
2019-02-21T07:10:30.018Z,102629.77
2019-02-21T07:12:59.428Z,102632.48
2019-02-21T07:15:28.827Z,102636.59
2019-02-21T07:17:58.252Z,102636.52
2019-02-21T07:20:27.650Z,102647.31
2019-02-21T07:22:57.077Z,102651.09
2019-02-21T07:25:28.124Z,102647.73
2019-02-21T07:27:58.354Z,102656.48
2019-02-21T07:30:27.934Z,102655.09
2019-02-21T07:32:57.617Z,102644.63
2019-02-21T07:35:27.042Z,102640.89
2019-02-21T07:37:56.456Z,102650.83
2019-02-21T07:40:25.884Z,102661.50
2019-02-21T07:42:55.303Z,102656.91
2019-02-21T07:45:24.700Z,102674.78
2019-02-21T07:47:54.298Z,102693.55
2019-02-21T07:50:23.720Z,102685.81
2019-02-21T07:53:02.020Z,102689.50
2019-02-21T07:55:24.294Z,102693.32
2019-02-21T07:57:53.735Z,102693.48
2019-02-21T08:00:23.168Z,102694.19
2019-02-21T08:02:52.581Z,102696.25
2019-02-21T08:05:23.666Z,102696.73
2019-02-21T08:07:53.181Z,102697.89
2019-02-21T08:10:33.150Z,102698.75
2019-02-21T08:12:53.822Z,102708.02
2019-02-21T08:15:23.250Z,102717.12
2019-02-21T08:17:53.027Z,102722.47
2019-02-21T08:20:33.255Z,102727.92
2019-02-21T08:22:53.918Z,102720.81
2019-02-21T08:25:23.401Z,102724.67
2019-02-21T08:27:52.803Z,102723.60
2019-02-21T08:30:22.223Z,102722.75
2019-02-21T08:33:05.433Z,102722.08
2019-02-21T08:35:34.838Z,102730.59
2019-02-21T08:38:04.253Z,102713.83
2019-02-21T08:40:33.754Z,102715.72
2019-02-21T08:43:04.097Z,102709.87
2019-02-21T08:45:33.673Z,102707.84
2019-02-21T08:48:03.111Z,102720.16
2019-02-21T08:50:32.819Z,102717.76
2019-02-21T08:53:02.248Z,102727.03
2019-02-21T08:55:31.962Z,102728.46
2019-02-21T08:58:01.666Z,102731.87
2019-02-21T09:00:31.720Z,102736.38
2019-02-21T09:03:01.378Z,102733.69
2019-02-21T09:05:30.858Z,102734.52
2019-02-21T09:08:00.382Z,102733.41
2019-02-21T09:10:29.855Z,102733.92
2019-02-21T09:12:59.275Z,102738.28
2019-02-21T09:15:28.740Z,102739.36
2019-02-21T09:17:58.331Z,102733.11
2019-02-21T09:20:28.007Z,102736.38
2019-02-21T09:22:57.419Z,102736.81
2019-02-21T09:25:26.841Z,102744.00
2019-02-21T09:27:56.241Z,102741.59
2019-02-21T09:30:25.689Z,102740.12
2019-02-21T09:32:55.379Z,102742.98
2019-02-21T09:35:24.781Z,102729.19
2019-02-21T09:37:54.203Z,102729.59
2019-02-21T09:40:23.684Z,102728.02
2019-02-21T09:42:53.263Z,102726.83
2019-02-21T09:45:22.668Z,102722.41
2019-02-21T09:47:52.378Z,102727.23
2019-02-21T09:50:21.795Z,102724.38
2019-02-21T09:52:51.208Z,102726.82
2019-02-21T09:55:20.716Z,102725.77
2019-02-21T09:57:50.418Z,102719.98
2019-02-21T10:00:22.466Z,102728.78
2019-02-21T10:02:55.784Z,102738.02
2019-02-21T10:05:23.057Z,102745.45
2019-02-21T10:07:52.485Z,102758.33
2019-02-21T10:10:22.244Z,102753.79
2019-02-21T10:12:51.753Z,102759.42
2019-02-21T10:15:21.155Z,102755.31
2019-02-21T10:17:50.963Z,102760.45
2019-02-21T10:20:23.504Z,102758.98
2019-02-21T10:22:52.954Z,102752.80
2019-02-21T10:25:28.385Z,102761.56
2019-02-21T10:27:59.033Z,102759.97
2019-02-21T10:30:28.758Z,102747.29
2019-02-21T10:32:58.180Z,102749.37
2019-02-21T10:35:27.672Z,102742.32
2019-02-21T10:37:57.094Z,102738.34
2019-02-21T10:40:26.521Z,102744.42
2019-02-21T10:42:55.952Z,102755.48
2019-02-21T10:45:25.376Z,102747.09
2019-02-21T10:47:54.857Z,102755.22
2019-02-21T10:50:24.654Z,102758.39
2019-02-21T10:52:54.129Z,102765.60
2019-02-21T10:55:23.831Z,102764.67
2019-02-21T10:57:53.534Z,102766.92
2019-02-21T11:00:29.468Z,102766.38
2019-02-21T11:02:59.024Z,102762.16
2019-02-21T11:05:28.450Z,102770.84
2019-02-21T11:07:57.863Z,102775.84
2019-02-21T11:10:30.927Z,102775.77
2019-02-21T11:13:00.365Z,102782.14
2019-02-21T11:15:29.780Z,102781.66
2019-02-21T11:17:59.484Z,102774.42
2019-02-21T11:20:29.189Z,102772.73
2019-02-21T11:22:58.599Z,102768.93
2019-02-21T11:25:28.043Z,102770.98
2019-02-21T11:27:57.475Z,102763.97
2019-02-21T11:30:26.898Z,102763.86
2019-02-21T11:32:56.311Z,102768.52
2019-02-21T11:35:25.716Z,102771.90
2019-02-21T11:37:55.174Z,102769.80
2019-02-21T11:40:24.682Z,102770.73
2019-02-21T11:42:54.084Z,102765.05
2019-02-21T11:45:23.581Z,102761.87
2019-02-21T11:47:53.083Z,102763.77
2019-02-21T11:50:22.793Z,102764.77
2019-02-21T11:52:52.221Z,102763.19
2019-02-21T11:55:26.607Z,102764.42
2019-02-21T11:57:56.352Z,102760.92
2019-02-21T12:00:30.622Z,102764.45
2019-02-21T12:03:00.045Z,102768.27
2019-02-21T12:05:31.401Z,102762.06
2019-02-21T12:08:00.655Z,102759.41
2019-02-21T12:10:30.074Z,102752.45
2019-02-21T12:12:59.530Z,102747.90
2019-02-21T12:15:29.370Z,102743.96
2019-02-21T12:17:58.783Z,102750.64
2019-02-21T12:20:28.286Z,102746.94
2019-02-21T12:22:57.695Z,102744.58
2019-02-21T12:25:27.119Z,102744.41
2019-02-21T12:27:56.563Z,102739.70
2019-02-21T12:30:25.979Z,102738.34
2019-02-21T12:32:55.695Z,102744.59
2019-02-21T12:35:29.521Z,102751.33
2019-02-21T12:37:56.248Z,102742.57
2019-02-21T12:40:25.696Z,102745.03
2019-02-21T12:42:55.118Z,102739.44
2019-02-21T12:45:30.154Z,102739.86
2019-02-21T12:47:59.721Z,102740.02
2019-02-21T12:50:29.177Z,102733.27
2019-02-21T12:52:58.574Z,102734.87
2019-02-21T12:55:31.615Z,102736.29
2019-02-21T12:57:59.161Z,102735.39
2019-02-21T13:00:28.567Z,102738.09
2019-02-21T13:02:58.007Z,102738.70
2019-02-21T13:05:27.442Z,102733.57
2019-02-21T13:07:56.844Z,102738.75
2019-02-21T13:10:26.524Z,102746.07
2019-02-21T13:12:55.932Z,102752.16
2019-02-21T13:15:25.364Z,102753.69
2019-02-21T13:17:54.795Z,102758.20
2019-02-21T13:20:24.209Z,102754.05
2019-02-21T13:22:53.649Z,102753.70
2019-02-21T13:25:23.136Z,102753.72
2019-02-21T13:27:52.556Z,102754.32
2019-02-21T13:30:21.974Z,102753.11
2019-02-21T13:32:51.398Z,102757.16
2019-02-21T13:35:20.814Z,102747.93
2019-02-21T13:37:50.232Z,102755.33
2019-02-21T13:40:21.265Z,102758.06
2019-02-21T13:42:50.930Z,102756.30
2019-02-21T13:45:20.426Z,102760.48
2019-02-21T13:47:49.830Z,102757.78
2019-02-21T13:50:23.718Z,102752.01
2019-02-21T13:52:52.587Z,102742.55
2019-02-21T13:55:22.057Z,102743.17
2019-02-21T13:57:51.499Z,102740.86
2019-02-21T14:00:22.820Z,102749.52
2019-02-21T14:02:52.299Z,102745.34
2019-02-21T14:05:21.725Z,102744.83
2019-02-21T14:07:51.394Z,102750.75
2019-02-21T14:10:20.818Z,102758.92
2019-02-21T14:12:50.233Z,102758.70
2019-02-21T14:15:30.230Z,102755.25
2019-02-21T14:17:59.668Z,102749.84
2019-02-21T14:20:29.071Z,102748.63
2019-02-21T14:22:58.504Z,102751.86
2019-02-21T14:25:29.810Z,102758.27
2019-02-21T14:27:59.093Z,102759.39
2019-02-21T14:30:28.543Z,102764.69
2019-02-21T14:32:58.256Z,102768.72
2019-02-21T14:35:27.676Z,102769.91
2019-02-21T14:37:57.374Z,102773.80
2019-02-21T14:40:26.847Z,102775.44
2019-02-21T14:42:56.253Z,102785.70
2019-02-21T14:45:26.529Z,102779.64
2019-02-21T14:47:56.284Z,102777.31
2019-02-21T14:50:25.701Z,102772.73
2019-02-21T14:52:55.203Z,102770.01
2019-02-21T14:55:24.623Z,102773.67
2019-02-21T14:57:54.065Z,102772.66
2019-02-21T15:00:28.650Z,102775.72
2019-02-21T15:02:58.187Z,102779.70
2019-02-21T15:05:27.809Z,102774.70
2019-02-21T15:07:57.222Z,102771.48
2019-02-21T15:10:26.648Z,102774.88
2019-02-21T15:12:56.338Z,102781.04
2019-02-21T15:15:28.855Z,102774.55
2019-02-21T15:18:06.860Z,102777.59
2019-02-21T15:20:36.709Z,102778.37
2019-02-21T15:23:01.029Z,102780.84
2019-02-21T15:25:30.526Z,102785.75
2019-02-21T15:27:59.933Z,102788.78
2019-02-21T15:30:29.349Z,102790.11
2019-02-21T15:32:58.760Z,102791.57
2019-02-21T15:35:28.179Z,102789.97
2019-02-21T15:37:57.877Z,102784.09
2019-02-21T15:40:28.744Z,102791.11
2019-02-21T15:42:58.161Z,102786.31
2019-02-21T15:45:29.671Z,102791.77
2019-02-21T15:47:59.119Z,102787.33
2019-02-21T15:50:28.527Z,102791.27
2019-02-21T15:52:58.415Z,102791.39
2019-02-21T15:55:27.823Z,102790.70
2019-02-21T15:58:03.828Z,102795.02
2019-02-21T16:00:28.424Z,102792.62
2019-02-21T16:02:57.832Z,102790.84
2019-02-21T16:05:27.278Z,102793.39
2019-02-21T16:07:56.690Z,102793.39
2019-02-21T16:10:30.391Z,102792.57
2019-02-21T16:13:01.218Z,102789.44
2019-02-21T16:15:30.973Z,102793.28
2019-02-21T16:18:00.459Z,102793.63
2019-02-21T16:20:29.896Z,102787.78
2019-02-21T16:22:59.350Z,102790.45
2019-02-21T16:25:33.554Z,102786.74
2019-02-21T16:28:02.964Z,102787.31
2019-02-21T16:30:32.400Z,102783.61
2019-02-21T16:33:01.839Z,102786.70
2019-02-21T16:35:31.360Z,102796.11
2019-02-21T16:38:00.804Z,102797.78
2019-02-21T16:40:30.345Z,102796.18
2019-02-21T16:42:59.788Z,102791.66
2019-02-21T16:45:42.217Z,102798.45
2019-02-21T16:48:00.444Z,102801.25
2019-02-21T16:50:30.393Z,102808.76
2019-02-21T16:52:59.884Z,102808.42
2019-02-21T16:55:29.651Z,102810.97
2019-02-21T16:57:59.357Z,102811.76
2019-02-21T17:00:42.150Z,102821.09
2019-02-21T17:03:00.056Z,102815.38
2019-02-21T17:05:29.736Z,102825.22
2019-02-21T17:07:59.140Z,102828.48
2019-02-21T17:10:28.709Z,102825.45
2019-02-21T17:12:59.845Z,102830.45
2019-02-21T17:15:29.355Z,102837.28
2019-02-21T17:18:03.797Z,102831.58
2019-02-21T17:20:29.949Z,102836.13
2019-02-21T17:22:59.365Z,102847.44
2019-02-21T17:25:28.790Z,102847.94
2019-02-21T17:27:58.194Z,102855.48
2019-02-21T17:30:27.640Z,102869.09
2019-02-21T17:32:57.077Z,102876.40
2019-02-21T17:35:26.504Z,102871.45
2019-02-21T17:37:55.932Z,102877.95
2019-02-21T17:40:26.533Z,102875.47
2019-02-21T17:42:55.973Z,102876.34
2019-02-21T17:45:25.474Z,102881.65
2019-02-21T17:47:54.967Z,102882.06
2019-02-21T17:50:24.441Z,102892.84
2019-02-21T17:52:53.861Z,102893.36
2019-02-21T17:55:23.634Z,102895.86
2019-02-21T17:57:53.051Z,102902.66
2019-02-21T18:00:25.750Z,102909.86
2019-02-21T18:02:55.426Z,102917.13
2019-02-21T18:05:24.818Z,102920.04
2019-02-21T18:07:54.263Z,102920.66
2019-02-21T18:10:23.815Z,102919.36
2019-02-21T18:12:53.261Z,102925.47
2019-02-21T18:15:22.680Z,102930.83
2019-02-21T18:17:52.085Z,102941.13
2019-02-21T18:20:21.508Z,102949.28
2019-02-21T18:22:50.944Z,102950.23
2019-02-21T18:25:31.216Z,102949.19
2019-02-21T18:28:00.635Z,102959.81
2019-02-21T18:30:30.139Z,102957.19
2019-02-21T18:32:59.563Z,102957.78
2019-02-21T18:35:29.122Z,102957.11
2019-02-21T18:37:58.571Z,102965.72
2019-02-21T18:40:28.819Z,102964.79
2019-02-21T18:42:58.269Z,102964.77
2019-02-21T18:45:27.845Z,102969.48
2019-02-21T18:47:57.251Z,102982.13
2019-02-21T18:50:37.460Z,102985.91
2019-02-21T18:52:57.974Z,102993.69
2019-02-21T18:55:27.425Z,102997.28
2019-02-21T18:57:56.832Z,102997.13
2019-02-21T19:00:27.191Z,103001.45
2019-02-21T19:02:56.747Z,103001.98
2019-02-21T19:05:35.249Z,103005.49
2019-02-21T19:08:04.737Z,103004.06
2019-02-21T19:10:28.851Z,103010.77
2019-02-21T19:12:58.574Z,103009.02
2019-02-21T19:15:29.780Z,103011.25
2019-02-21T19:17:59.644Z,103011.92
2019-02-21T19:20:29.245Z,103018.77
2019-02-21T19:22:58.767Z,103018.44
2019-02-21T19:25:28.366Z,103016.21
2019-02-21T19:27:57.797Z,103016.23
2019-02-21T19:30:34.732Z,103012.51
2019-02-21T19:33:04.218Z,103021.77
2019-02-21T19:35:33.726Z,103017.40
2019-02-21T19:38:10.385Z,103020.33
2019-02-21T19:40:34.288Z,103019.92
2019-02-21T19:43:03.726Z,103017.64
2019-02-21T19:45:33.231Z,103021.06
2019-02-21T19:48:04.244Z,103024.20
2019-02-21T19:50:33.921Z,103019.54
2019-02-21T19:53:03.333Z,103023.34
2019-02-21T19:55:32.772Z,103025.88
2019-02-21T19:58:02.267Z,103030.69
2019-02-21T20:00:33.434Z,103033.28
2019-02-21T20:03:02.876Z,103038.77
2019-02-21T20:05:32.291Z,103043.73
2019-02-21T20:08:08.563Z,103053.52
2019-02-21T20:10:32.911Z,103046.83
2019-02-21T20:13:03.987Z,103060.75
2019-02-21T20:15:33.487Z,103051.23
2019-02-21T20:18:02.907Z,103062.00
2019-02-21T20:20:32.341Z,103055.30
2019-02-21T20:23:03.272Z,103057.86
2019-02-21T20:25:33.645Z,103056.78
2019-02-21T20:28:03.145Z,103063.01
2019-02-21T20:30:32.547Z,103065.42
2019-02-21T20:33:01.968Z,103072.11
2019-02-21T20:35:31.724Z,103080.87
2019-02-21T20:38:01.263Z,103080.77
2019-02-21T20:40:30.741Z,103083.94
2019-02-21T20:43:00.161Z,103090.30
2019-02-21T20:45:29.625Z,103090.27
2019-02-21T20:47:59.046Z,103092.99
2019-02-21T20:50:28.555Z,103088.21
2019-02-21T20:52:58.128Z,103091.20
2019-02-21T20:55:27.612Z,103088.54
2019-02-21T20:57:57.055Z,103090.81
2019-02-21T21:00:26.634Z,103097.98
2019-02-21T21:02:56.215Z,103095.59
2019-02-21T21:05:25.906Z,103093.08
2019-02-21T21:07:55.368Z,103101.09
2019-02-21T21:10:25.456Z,103103.44
2019-02-21T21:12:54.863Z,103107.61
2019-02-21T21:15:24.286Z,103106.26
2019-02-21T21:17:53.790Z,103104.58
2019-02-21T21:20:25.818Z,103102.67
2019-02-21T21:22:54.404Z,103110.98
2019-02-21T21:25:23.815Z,103113.08
2019-02-21T21:27:53.260Z,103113.60
2019-02-21T21:30:42.116Z,103111.18
2019-02-21T21:33:11.576Z,103117.56
2019-02-21T21:35:41.136Z,103113.52
2019-02-21T21:38:10.544Z,103113.81
2019-02-21T21:40:39.981Z,103122.25
2019-02-21T21:43:09.419Z,103115.03
2019-02-21T21:45:38.923Z,103114.94
2019-02-21T21:48:08.314Z,103116.89
2019-02-21T21:50:37.859Z,103116.68
2019-02-21T21:53:07.642Z,103136.88
2019-02-21T21:55:37.052Z,103128.25
2019-02-21T21:58:06.471Z,103136.39
2019-02-21T22:00:36.004Z,103132.94
2019-02-21T22:03:05.567Z,103137.23
2019-02-21T22:05:34.954Z,103141.21
2019-02-21T22:08:04.393Z,103151.01
2019-02-21T22:10:33.813Z,103155.44
2019-02-21T22:13:03.233Z,103151.48
2019-02-21T22:15:32.722Z,103155.81
2019-02-21T22:18:02.134Z,103151.73
2019-02-21T22:20:31.805Z,103156.25
2019-02-21T22:23:02.124Z,103154.48
2019-02-21T22:25:31.819Z,103152.11
2019-02-21T22:28:01.260Z,103166.27
2019-02-21T22:30:30.655Z,103162.28
2019-02-21T22:33:00.064Z,103166.47
2019-02-21T22:35:29.469Z,103163.23
2019-02-21T22:37:58.881Z,103155.92
2019-02-21T22:40:28.588Z,103166.06
2019-02-21T22:42:58.012Z,103162.57
2019-02-21T22:45:27.698Z,103160.12
2019-02-21T22:47:57.109Z,103171.80
2019-02-21T22:50:27.000Z,103169.97
2019-02-21T22:52:56.455Z,103169.59
2019-02-21T22:55:25.862Z,103173.13
2019-02-21T22:57:55.310Z,103172.80
2019-02-21T23:00:54.346Z,103175.08
2019-02-21T23:03:28.200Z,103189.33
2019-02-21T23:06:24.328Z,103182.90
2019-02-21T23:08:55.022Z,103190.72
2019-02-21T23:11:24.843Z,103207.33
2019-02-21T23:13:54.789Z,103215.52
2019-02-21T23:16:24.394Z,103217.75
2019-02-21T23:18:53.815Z,103230.64
2019-02-21T23:21:23.228Z,103233.70
2019-02-21T23:23:52.936Z,103228.81
2019-02-21T23:26:22.336Z,103234.51
2019-02-21T23:28:52.032Z,103232.88
2019-02-21T23:31:21.442Z,103237.88
2019-02-21T23:33:52.498Z,103237.05
2019-02-21T23:36:22.189Z,103238.59
2019-02-21T23:38:51.594Z,103235.75
2019-02-21T23:41:21.027Z,103240.37
2019-02-21T23:43:50.434Z,103244.19
2019-02-21T23:46:19.825Z,103244.97
2019-02-21T23:48:49.252Z,103255.39
2019-02-21T23:51:18.711Z,103248.13
2019-02-21T23:53:48.195Z,103247.77
2019-02-21T23:56:17.622Z,103243.22
2019-02-21T23:58:47.032Z,103248.56
